sensor_id;sensor_type;location;lat;lon;timestamp;pressure;altitude;pressure_sealevel;temperature;humidity
30338;BME280;17143;51.888;5.408;2023-08-06T00:14:57;100244.69;;;16.45;100.00
30338;BME280;17143;51.888;5.408;2023-08-06T00:29:59;100231.53;;;16.45;100.00
30338;BME280;17143;51.888;5.408;2023-08-06T00:45:01;100230.63;;;16.43;100.00
30338;BME280;17143;51.888;5.408;2023-08-06T01:00:04;100228.91;;;16.45;100.00
30338;BME280;17143;51.888;5.408;2023-08-06T01:15:11;100221.94;;;16.48;100.00
30338;BME280;17143;51.888;5.408;2023-08-06T01:30:19;100219.84;;;16.31;100.00
30338;BME280;17143;51.888;5.408;2023-08-06T01:45:22;100226.69;;;16.23;100.00
30338;BME280;17143;51.888;5.408;2023-08-06T02:00:25;100223.22;;;16.24;100.00
30338;BME280;17143;51.888;5.408;2023-08-06T02:15:28;100219.75;;;16.25;100.00
30338;BME280;17143;51.888;5.408;2023-08-06T02:30:30;100210.97;;;16.25;100.00
30338;BME280;17143;51.888;5.408;2023-08-06T02:45:32;100221.47;;;16.25;100.00
30338;BME280;17143;51.888;5.408;2023-08-06T03:00:34;100203.97;;;16.25;100.00
30338;BME280;17143;51.888;5.408;2023-08-06T03:15:38;100206.53;;;16.22;100.00
30338;BME280;17143;51.888;5.408;2023-08-06T03:30:40;100205.56;;;16.17;100.00
30338;BME280;17143;51.888;5.408;2023-08-06T03:45:45;100207.22;;;16.15;100.00
30338;BME280;17143;51.888;5.408;2023-08-06T04:00:48;100207.31;;;16.18;100.00
30338;BME280;17143;51.888;5.408;2023-08-06T04:15:50;100210.81;;;16.17;100.00
30338;BME280;17143;51.888;5.408;2023-08-06T04:30:53;100224.88;;;16.21;100.00
30338;BME280;17143;51.888;5.408;2023-08-06T04:45:55;100230.28;;;16.28;100.00
30338;BME280;17143;51.888;5.408;2023-08-06T05:00:57;100239.28;;;16.38;100.00
30338;BME280;17143;51.888;5.408;2023-08-06T05:15:59;100239.50;;;16.49;100.00
30338;BME280;17143;51.888;5.408;2023-08-06T05:31:04;100266.81;;;16.54;100.00
30338;BME280;17143;51.888;5.408;2023-08-06T05:46:06;100285.22;;;16.54;100.00
30338;BME280;17143;51.888;5.408;2023-08-06T06:01:08;100299.34;;;16.59;100.00
30338;BME280;17143;51.888;5.408;2023-08-06T06:16:10;100323.03;;;16.59;100.00
30338;BME280;17143;51.888;5.408;2023-08-06T06:31:12;100343.22;;;16.60;100.00
30338;BME280;17143;51.888;5.408;2023-08-06T06:46:14;100356.41;;;16.63;100.00
30338;BME280;17143;51.888;5.408;2023-08-06T07:01:16;100364.44;;;16.69;100.00
30338;BME280;17143;51.888;5.408;2023-08-06T07:16:18;100381.25;;;16.75;100.00
30338;BME280;17143;51.888;5.408;2023-08-06T07:31:20;100387.41;;;16.76;100.00
30338;BME280;17143;51.888;5.408;2023-08-06T07:46:22;100407.16;;;16.57;100.00
30338;BME280;17143;51.888;5.408;2023-08-06T08:01:24;100415.13;;;16.26;100.00
30338;BME280;17143;51.888;5.408;2023-08-06T08:16:26;100430.72;;;16.18;100.00
30338;BME280;17143;51.888;5.408;2023-08-06T08:31:28;100439.13;;;16.04;100.00
30338;BME280;17143;51.888;5.408;2023-08-06T08:46:32;100433.25;;;16.15;100.00
30338;BME280;17143;51.888;5.408;2023-08-06T09:01:34;100453.88;;;16.33;100.00
30338;BME280;17143;51.888;5.408;2023-08-06T09:16:37;100474.16;;;16.38;100.00
30338;BME280;17143;51.888;5.408;2023-08-06T09:31:44;100481.19;;;16.39;100.00
30338;BME280;17143;51.888;5.408;2023-08-06T09:46:50;100504.00;;;16.40;100.00
30338;BME280;17143;51.888;5.408;2023-08-06T10:01:53;100523.16;;;16.36;100.00
30338;BME280;17143;51.888;5.408;2023-08-06T10:16:57;100534.09;;;16.52;100.00
30338;BME280;17143;51.888;5.408;2023-08-06T10:32:01;100553.19;;;16.77;100.00
30338;BME280;17143;51.888;5.408;2023-08-06T10:47:27;100565.44;;;16.77;100.00
30338;BME280;17143;51.888;5.408;2023-08-06T11:02:33;100575.13;;;16.78;100.00
30338;BME280;17143;51.888;5.408;2023-08-06T11:17:35;100575.22;;;17.18;100.00
30338;BME280;17143;51.888;5.408;2023-08-06T11:32:46;100581.81;;;17.38;100.00
30338;BME280;17143;51.888;5.408;2023-08-06T11:47:51;100596.06;;;17.09;100.00
30338;BME280;17143;51.888;5.408;2023-08-06T12:02:53;100609.50;;;17.21;100.00
30338;BME280;17143;51.888;5.408;2023-08-06T12:17:55;100616.78;;;17.31;100.00
30338;BME280;17143;51.888;5.408;2023-08-06T12:32:57;100625.38;;;17.24;100.00
30338;BME280;17143;51.888;5.408;2023-08-06T12:47:59;100647.44;;;17.29;100.00
30338;BME280;17143;51.888;5.408;2023-08-06T13:03:02;100663.72;;;17.49;100.00
30338;BME280;17143;51.888;5.408;2023-08-06T13:18:04;100673.34;;;17.48;100.00
30338;BME280;17143;51.888;5.408;2023-08-06T13:33:06;100686.66;;;17.53;100.00
30338;BME280;17143;51.888;5.408;2023-08-06T13:48:08;100707.00;;;17.58;100.00
30338;BME280;17143;51.888;5.408;2023-08-06T14:03:10;100705.50;;;17.70;100.00
30338;BME280;17143;51.888;5.408;2023-08-06T14:18:13;100712.97;;;17.89;100.00
30338;BME280;17143;51.888;5.408;2023-08-06T14:33:15;100739.34;;;17.89;100.00
30338;BME280;17143;51.888;5.408;2023-08-06T14:48:17;100742.91;;;17.91;100.00
30338;BME280;17143;51.888;5.408;2023-08-06T15:03:19;100763.16;;;17.93;100.00
30338;BME280;17143;51.888;5.408;2023-08-06T15:18:21;100786.03;;;17.94;100.00
30338;BME280;17143;51.888;5.408;2023-08-06T15:33:23;100830.16;;;17.66;100.00
30338;BME280;17143;51.888;5.408;2023-08-06T15:48:25;100848.09;;;17.49;100.00
30338;BME280;17143;51.888;5.408;2023-08-06T16:03:27;100873.81;;;17.26;100.00
30338;BME280;17143;51.888;5.408;2023-08-06T16:18:29;100897.28;;;17.17;100.00
30338;BME280;17143;51.888;5.408;2023-08-06T16:33:31;100924.38;;;16.85;100.00
30338;BME280;17143;51.888;5.408;2023-08-06T16:48:33;100935.59;;;16.78;100.00
30338;BME280;17143;51.888;5.408;2023-08-06T17:03:35;100941.69;;;16.77;100.00
30338;BME280;17143;51.888;5.408;2023-08-06T17:18:37;100971.41;;;16.73;100.00
30338;BME280;17143;51.888;5.408;2023-08-06T17:33:39;101004.94;;;16.53;100.00
30338;BME280;17143;51.888;5.408;2023-08-06T17:48:41;101024.56;;;16.37;100.00
30338;BME280;17143;51.888;5.408;2023-08-06T18:03:43;101026.13;;;16.32;100.00
30338;BME280;17143;51.888;5.408;2023-08-06T18:18:45;101038.34;;;16.30;100.00
30338;BME280;17143;51.888;5.408;2023-08-06T18:33:47;101048.13;;;16.09;100.00
30338;BME280;17143;51.888;5.408;2023-08-06T18:48:49;101039.75;;;15.72;100.00
30338;BME280;17143;51.888;5.408;2023-08-06T19:03:51;101042.44;;;15.50;100.00
30338;BME280;17143;51.888;5.408;2023-08-06T19:18:53;101052.25;;;15.33;100.00
30338;BME280;17143;51.888;5.408;2023-08-06T19:33:55;101060.56;;;15.21;100.00
30338;BME280;17143;51.888;5.408;2023-08-06T19:48:57;101062.00;;;15.13;100.00
30338;BME280;17143;51.888;5.408;2023-08-06T20:03:59;101058.31;;;15.08;100.00
30338;BME280;17143;51.888;5.408;2023-08-06T20:19:01;101051.78;;;14.99;100.00
30338;BME280;17143;51.888;5.408;2023-08-06T20:34:03;101050.91;;;14.98;100.00
30338;BME280;17143;51.888;5.408;2023-08-06T20:49:05;101061.03;;;14.89;100.00
30338;BME280;17143;51.888;5.408;2023-08-06T21:04:08;101061.72;;;14.85;100.00
30338;BME280;17143;51.888;5.408;2023-08-06T21:19:10;101071.25;;;14.83;100.00
30338;BME280;17143;51.888;5.408;2023-08-06T21:34:12;101077.00;;;14.75;100.00
30338;BME280;17143;51.888;5.408;2023-08-06T21:49:14;101090.03;;;14.72;100.00
30338;BME280;17143;51.888;5.408;2023-08-06T22:04:16;101094.13;;;14.65;100.00
30338;BME280;17143;51.888;5.408;2023-08-06T22:19:18;101110.66;;;14.64;100.00
30338;BME280;17143;51.888;5.408;2023-08-06T22:34:20;101103.66;;;14.63;100.00
30338;BME280;17143;51.888;5.408;2023-08-06T22:49:22;101099.31;;;14.63;100.00
30338;BME280;17143;51.888;5.408;2023-08-06T23:04:24;101109.03;;;14.66;100.00
30338;BME280;17143;51.888;5.408;2023-08-06T23:19:26;101114.50;;;14.72;100.00
30338;BME280;17143;51.888;5.408;2023-08-06T23:34:28;101128.59;;;14.74;100.00
30338;BME280;17143;51.888;5.408;2023-08-06T23:49:30;101112.59;;;14.68;100.00
